Woodbridge, Virginia
Current Conditions -  °F | °C
As of 3:58 PM on Sunday 23 Nov 2014 (Local Time) from KDAA Reporting Station
Scattered Clouds Scattered Clouds  
Wind Chill: 56°   Ceiling: Unl
Heat Index: 56°   Visibility: 10mi
Dew Point: 31°   Wind: 2mph
Humidity: 39%   Direction: NA
Pressure: 30.09"   Gusts: NA
Location:  38.66°N, 77.25°W
Report Text: KDAA 232058Z AUTO VRB02KT 10SM SCT200 13/00 A3009 RMK AO2 SLP193 T01341003 57022
Loading
Personal Weather Stations






























Interactive Weather Map New forecast layout! Learn more

10-Day Weather Forecast

Advertisements
Track Severe Weather on mobile